Time;durP1;ratioP1;P1;durP2;ratioP2;P2;SDS_P1;SDS_P2;PMS_P1;PMS_P2;Temp;Humidity;BMP_temperature;BMP_pressure;BME280_temperature;BME280_humidity;BME280_pressure;Samples;Min_cycle;Max_cycle;Signal;HPM_P1;HPM_P2
2022/10/18 00:00:38;;;;;;;0.00;0.00;;;;;;;10.84;61.58;101762.25;7362093;19;20688;-56
2022/10/18 00:03:03;;;;;;;0.00;0.00;;;;;;;10.79;61.83;101769.25;7363318;19;20461;-58
2022/10/18 00:05:28;;;;;;;0.00;0.00;;;;;;;10.78;61.21;101775.38;7364462;19;20102;-56
2022/10/18 00:07:54;;;;;;;0.00;0.00;;;;;;;10.73;61.22;101771.91;7362849;19;20010;-57
2022/10/18 00:10:19;;;;;;;0.00;0.00;;;;;;;10.69;62.06;101768.44;7364072;19;20015;-56
2022/10/18 00:12:45;;;;;;;0.00;0.00;;;;;;;10.64;62.38;101776.34;7361957;19;20106;-57
2022/10/18 00:15:10;;;;;;;0.00;0.00;;;;;;;10.62;61.12;101778.06;7364076;19;20015;-56
2022/10/18 00:17:37;;;;;;;0.00;0.00;;;;;;;10.56;61.04;101778.09;7362471;19;20022;-55
2022/10/18 00:20:04;;;;;;;0.00;0.00;;;;;;;10.53;61.45;101783.34;7360446;19;20822;-57
2022/10/18 00:22:30;;;;;;;0.00;0.00;;;;;;;10.49;61.10;101786.88;7362152;19;20094;-57
2022/10/18 00:24:55;;;;;;;0.00;0.00;;;;;;;10.45;61.73;101792.97;7363717;19;20011;-57
2022/10/18 00:27:21;;;;;;;0.00;0.00;;;;;;;10.42;62.54;101790.34;7363428;19;20604;-57
2022/10/18 00:29:46;;;;;;;0.00;0.00;;;;;;;10.40;62.26;101786.91;7359888;19;20018;-57
2022/10/18 00:32:12;;;;;;;0.00;0.00;;;;;;;10.36;62.57;101790.38;7362619;19;20019;-58
2022/10/18 00:34:39;;;;;;;0.00;0.00;;;;;;;10.21;63.13;101769.53;7362141;19;20006;-57
2022/10/18 00:37:05;;;;;;;0.00;0.00;;;;;;;10.20;62.91;101773.03;7364163;19;20018;-57
2022/10/18 00:39:31;;;;;;;0.00;0.00;;;;;;;10.31;63.50;101793.03;7362528;19;21169;-56
2022/10/18 00:41:56;;;;;;;0.00;0.00;;;;;;;10.13;63.24;101764.34;7362155;19;20041;-56
2022/10/18 00:44:24;;;;;;;0.00;0.00;;;;;;;10.36;63.13;101799.09;7362217;19;20017;-57
2022/10/18 00:46:51;;;;;;;0.00;0.00;;;;;;;9.89;63.08;101715.72;7361498;19;20604;-57
2022/10/18 00:49:49;;;;;;;0.00;0.00;;;;;;;10.36;62.23;101785.16;7364303;19;20694;-57
2022/10/18 00:52:17;;;;;;;;;;;;;;;10.49;61.28;101802.53;7258975;19;2004272;-56
2022/10/18 00:54:45;;;;;;;0.00;0.00;;;;;;;10.50;63.41;101799.03;7362382;19;19918;-57
2022/10/18 00:57:12;;;;;;;0.00;0.00;;;;;;;10.48;63.83;101779.88;7361564;19;20014;-56
2022/10/18 00:59:38;;;;;;;0.00;0.00;;;;;;;10.53;63.99;101782.47;7360698;19;20018;-57
2022/10/18 01:02:05;;;;;;;0.00;0.00;;;;;;;10.54;64.21;101789.41;7361482;19;20019;-56
2022/10/18 01:04:30;;;;;;;0.00;0.00;;;;;;;10.41;63.79;101761.66;7357052;19;20462;-57
2022/10/18 01:07:07;;;;;;;0.00;0.00;;;;;;;10.55;63.90;101786.81;7362487;19;20018;-57
2022/10/18 01:09:40;;;;;;;0.00;0.00;;;;;;;10.56;63.64;101793.78;7359476;19;20018;-57
2022/10/18 01:12:29;;;;;;;0.00;0.00;;;;;;;10.49;63.30;101786.88;7361667;19;20026;-58
2022/10/18 01:15:10;;;;;;;0.00;0.00;;;;;;;10.56;63.30;101791.16;7362514;19;20030;-57
2022/10/18 01:18:08;;;;;;;0.00;0.00;;;;;;;10.44;63.52;101772.97;7362082;19;20109;-56
2022/10/18 01:20:40;;;;;;;0.00;0.00;;;;;;;10.48;63.61;101787.72;7258302;19;2004244;-56
2022/10/18 01:23:48;;;;;;;0.00;0.00;;;;;;;10.54;63.58;101795.53;7361164;19;20022;-58
2022/10/18 01:26:51;;;;;;;0.00;0.00;;;;;;;10.57;62.91;101811.19;7251599;19;2004132;-57
2022/10/18 01:29:43;;;;;;;0.00;0.00;;;;;;;10.57;63.77;101813.78;7261397;19;2004456;-57
2022/10/18 01:32:17;;;;;;;0.00;0.00;;;;;;;10.55;63.70;101805.09;7355791;19;20006;-58
2022/10/18 01:34:46;;;;;;;0.00;0.00;;;;;;;10.53;64.28;101801.63;7361315;19;20461;-56
2022/10/18 01:37:15;;;;;;;0.00;0.00;;;;;;;10.55;63.51;101805.09;7358257;19;20019;-57
2022/10/18 01:39:44;;;;;;;0.00;0.00;;;;;;;10.55;64.23;101801.63;7361288;19;20018;-57
2022/10/18 01:42:12;;;;;;;0.03;0.03;;;;;;;10.52;63.96;101805.09;7358403;19;20848;-57
2022/10/18 01:44:40;;;;;;;0.03;0.03;;;;;;;10.51;64.12;101811.22;7360899;19;20010;-56
2022/10/18 01:47:08;;;;;;;0.00;0.00;;;;;;;10.52;64.59;101815.56;7361234;19;20600;-57
2022/10/18 01:49:33;;;;;;;0.00;0.00;;;;;;;10.51;64.67;101816.44;7357927;19;20003;-55
2022/10/18 01:51:59;;;;;;;0.00;0.00;;;;;;;10.53;65.01;101813.81;7361931;19;20526;-56
2022/10/18 01:54:33;;;;;;;0.00;0.00;;;;;;;10.41;64.30;101798.22;7362577;19;20007;-57
2022/10/18 01:57:01;;;;;;;0.00;0.00;;;;;;;10.53;64.19;101819.91;7364172;19;20889;-57
2022/10/18 01:59:48;;;;;;;0.00;0.00;;;;;;;10.40;63.42;101799.94;7352649;19;20369;-56
2022/10/18 02:02:32;;;;;;;0.00;0.00;;;;;;;10.52;63.73;101818.16;7361957;19;20006;-56
2022/10/18 02:05:09;;;;;;;0.00;0.00;;;;;;;10.51;63.99;101826.03;7361020;19;20013;-57
2022/10/18 02:07:49;;;;;;;0.00;0.00;;;;;;;10.49;63.58;101830.34;7362679;19;20024;-57
2022/10/18 02:10:33;;;;;;;0.00;0.00;;;;;;;10.26;64.15;101799.13;7361710;19;20006;-58
2022/10/18 02:12:59;;;;;;;0.00;0.00;;;;;;;10.40;63.96;101828.69;7354549;19;20666;-57
2022/10/18 02:15:31;;;;;;;0.00;0.00;;;;;;;10.43;64.01;101838.22;7362665;19;20014;-56
2022/10/18 02:17:57;;;;;;;0.00;0.00;;;;;;;10.41;64.90;101840.84;7358036;19;20007;-57
2022/10/18 02:20:24;;;;;;;0.00;0.00;;;;;;;10.38;64.24;101840.84;7360442;19;20021;-57
2022/10/18 02:22:53;;;;;;;0.00;0.00;;;;;;;10.37;63.93;101850.44;7360646;19;20010;-55
2022/10/18 02:25:24;;;;;;;0.00;0.00;;;;;;;10.34;64.29;101842.63;7359885;19;20010;-54
2022/10/18 02:27:50;;;;;;;0.10;0.10;;;;;;;10.31;64.18;101836.53;7360233;19;21181;-57
2022/10/18 02:30:16;;;;;;;0.00;0.00;;;;;;;10.26;64.56;101833.06;7363306;19;20051;-56
2022/10/18 02:32:52;;;;;;;0.05;0.05;;;;;;;10.30;64.14;101837.41;7358206;19;20006;-57
2022/10/18 02:35:46;;;;;;;0.00;0.00;;;;;;;10.28;64.11;101839.16;7362854;19;20630;-57
2022/10/18 02:38:15;;;;;;;0.00;0.00;;;;;;;10.27;63.16;101842.63;7258406;19;2004275;-56
2022/10/18 02:40:40;;;;;;;0.00;0.00;;;;;;;10.23;63.09;101846.09;7359573;19;20006;-56
2022/10/18 02:43:06;;;;;;;0.00;0.00;;;;;;;10.23;62.53;101846.09;7358421;19;20033;-57
2022/10/18 02:45:32;;;;;;;0.00;0.00;;;;;;;10.20;63.09;101853.94;7359642;19;20007;-58
2022/10/18 02:47:58;;;;;;;0.00;0.00;;;;;;;10.04;62.69;101820.06;7360965;19;20018;-57
2022/10/18 02:50:23;;;;;;;0.00;0.00;;;;;;;10.12;62.85;101848.72;7358143;19;20839;-56
2022/10/18 02:52:48;;;;;;;0.00;0.00;;;;;;;10.12;62.80;101852.22;7361031;19;20025;-55
2022/10/18 02:55:14;;;;;;;0.00;0.00;;;;;;;10.09;62.61;101854.84;7360363;19;20750;-57
2022/10/18 02:57:40;;;;;;;0.00;0.00;;;;;;;10.03;62.54;101848.75;7359264;19;20025;-55
2022/10/18 03:00:06;;;;;;;0.00;0.00;;;;;;;10.06;62.71;101853.97;7357249;19;20022;-57
2022/10/18 03:02:32;;;;;;;0.00;0.00;;;;;;;9.98;63.01;101856.59;7361297;19;20007;-58
2022/10/18 03:04:57;;;;;;;0.00;0.00;;;;;;;10.01;63.51;101861.81;7352011;19;20024;-56
2022/10/18 03:07:22;;;;;;;0.10;0.10;;;;;;;9.96;62.75;101860.94;7361254;19;20033;-57
2022/10/18 03:09:48;;;;;;;0.00;0.00;;;;;;;9.95;62.89;101867.03;7357248;19;20600;-57
2022/10/18 03:12:15;;;;;;;0.00;0.00;;;;;;;9.94;63.25;101860.09;7360345;19;20477;-58
2022/10/18 03:14:40;;;;;;;0.00;0.00;;;;;;;9.79;62.67;101839.25;7358491;19;20011;-55
2022/10/18 03:17:06;;;;;;;0.00;0.00;;;;;;;9.88;62.62;101860.06;7360561;19;20025;-57
2022/10/18 03:19:31;;;;;;;0.00;0.00;;;;;;;9.86;63.73;101864.44;7352398;19;20002;-56
2022/10/18 03:21:56;;;;;;;0.00;0.00;;;;;;;9.86;63.39;101877.47;7360480;19;20568;-57
2022/10/18 03:24:22;;;;;;;0.00;0.00;;;;;;;9.81;63.32;101866.19;7359597;19;20010;-56
2022/10/18 03:26:47;;;;;;;0.00;0.00;;;;;;;9.81;62.72;101869.66;7362369;19;20002;-56
2022/10/18 03:29:13;;;;;;;0.00;0.00;;;;;;;9.79;63.34;101867.94;7368025;19;20022;-57
2022/10/18 03:31:38;;;;;;;0.00;0.00;;;;;;;9.78;63.53;101866.19;7368038;19;20833;-57
2022/10/18 03:34:04;;;;;;;0.00;0.00;;;;;;;9.75;63.38;101863.59;7368152;19;20010;-57
2022/10/18 03:36:29;;;;;;;0.00;0.00;;;;;;;9.73;63.05;101866.22;7367205;19;20901;-58
2022/10/18 03:38:54;;;;;;;0.00;0.00;;;;;;;9.71;63.13;101869.66;7366846;19;20010;-58
2022/10/18 03:41:20;;;;;;;0.03;0.03;;;;;;;9.69;63.86;101864.47;7366378;19;20037;-57
2022/10/18 03:43:46;;;;;;;0.00;0.00;;;;;;;9.58;63.50;101850.56;7369145;19;20017;-57
2022/10/18 03:46:11;;;;;;;0.00;0.00;;;;;;;9.67;63.57;101875.75;7363890;19;20006;-57
2022/10/18 03:48:37;;;;;;;0.00;0.00;;;;;;;9.65;63.34;101875.75;7366887;19;20010;-56
2022/10/18 03:51:02;;;;;;;0.00;0.00;;;;;;;9.56;63.10;101857.50;7365487;19;20011;-57
2022/10/18 03:53:28;;;;;;;0.00;0.00;;;;;;;9.60;62.93;101867.06;7365913;19;20006;-55
2022/10/18 03:55:53;;;;;;;0.00;0.00;;;;;;;9.61;62.76;101874.00;7367831;19;20028;-58
2022/10/18 03:58:19;;;;;;;0.00;0.00;;;;;;;9.57;62.89;101862.69;7365759;19;20025;-57
2022/10/18 04:00:44;;;;;;;0.00;0.00;;;;;;;9.42;63.73;101836.63;7367864;19;20014;-57
2022/10/18 04:03:10;;;;;;;0.00;0.00;;;;;;;9.53;63.77;101868.81;7363896;19;20040;-56
2022/10/18 04:05:35;;;;;;;0.00;0.00;;;;;;;9.54;64.10;101875.75;7366756;19;20010;-57
2022/10/18 04:08:01;;;;;;;0.00;0.00;;;;;;;9.54;64.70;101875.75;7367311;19;21494;-57
2022/10/18 04:10:27;;;;;;;0.00;0.00;;;;;;;9.43;65.14;101869.69;7366293;19;20134;-57
2022/10/18 04:12:53;;;;;;;0.00;0.00;;;;;;;9.53;65.20;101886.16;7365714;19;20081;-57
2022/10/18 04:15:18;;;;;;;0.00;0.00;;;;;;;9.53;65.78;101875.75;7367942;19;20046;-56
2022/10/18 04:17:43;;;;;;;0.00;0.00;;;;;;;9.53;65.58;101887.06;7364780;19;20714;-57
2022/10/18 04:20:09;;;;;;;0.00;0.00;;;;;;;9.53;65.39;101889.69;7367194;19;20015;-58
2022/10/18 04:22:34;;;;;;;0.00;0.00;;;;;;;9.40;65.71;101874.00;7365777;19;20006;-54
2022/10/18 04:25:00;;;;;;;0.00;0.00;;;;;;;9.53;65.44;101892.28;7365983;19;20659;-56
2022/10/18 04:27:25;;;;;;;0.00;0.00;;;;;;;9.54;65.26;101896.63;7360827;19;20035;-57
2022/10/18 04:29:51;;;;;;;0.00;0.00;;;;;;;9.53;65.33;101888.78;7364982;19;20105;-57
2022/10/18 04:32:16;;;;;;;0.00;0.00;;;;;;;9.42;64.74;101878.34;7364892;19;20014;-56
2022/10/18 04:34:41;;;;;;;0.00;0.00;;;;;;;9.44;64.39;101878.38;7365008;19;20010;-57
2022/10/18 04:37:07;;;;;;;0.00;0.00;;;;;;;9.33;64.33;101870.53;7363478;19;20039;-56
2022/10/18 04:39:32;;;;;;;0.10;0.10;;;;;;;9.48;64.74;101894.00;7363780;19;20017;-56
2022/10/18 04:41:58;;;;;;;0.00;0.00;;;;;;;9.45;64.35;101893.13;7364675;19;20014;-57
2022/10/18 04:44:23;;;;;;;0.00;0.00;;;;;;;9.40;64.22;101893.13;7362376;19;20851;-57
2022/10/18 04:46:48;;;;;;;0.00;0.00;;;;;;;9.44;64.09;101905.31;7358606;19;20025;-57
2022/10/18 04:49:14;;;;;;;0.00;0.00;;;;;;;9.32;63.40;101889.63;7365051;19;20006;-57
2022/10/18 04:51:39;;;;;;;0.00;0.00;;;;;;;9.28;63.30;101887.91;7366393;19;20027;-58
2022/10/18 04:54:05;;;;;;;0.00;0.00;;;;;;;9.37;63.46;101903.53;7365718;19;20011;-55
2022/10/18 04:56:31;;;;;;;0.10;0.10;;;;;;;9.34;63.63;101908.75;7363911;19;20041;-56
2022/10/18 04:58:57;;;;;;;0.00;0.00;;;;;;;9.31;64.03;101920.03;7364520;19;20074;-57
2022/10/18 05:01:23;;;;;;;0.00;0.00;;;;;;;9.30;63.94;101926.13;7364616;19;20867;-56
2022/10/18 05:03:53;;;;;;;0.00;0.00;;;;;;;9.28;63.36;101930.47;7365254;19;20094;-57
2022/10/18 05:06:19;;;;;;;0.00;0.00;;;;;;;9.23;63.84;101920.91;7366834;19;20491;-58
2022/10/18 05:08:44;;;;;;;0.00;0.00;;;;;;;9.20;63.96;101921.75;7364287;19;20010;-57
2022/10/18 05:11:10;;;;;;;0.00;0.00;;;;;;;9.21;64.53;101933.06;7364177;19;20095;-55
2022/10/18 05:13:37;;;;;;;0.00;0.00;;;;;;;9.07;64.38;101914.75;7365703;19;20033;-57
2022/10/18 05:16:03;;;;;;;0.00;0.00;;;;;;;9.17;64.35;101936.50;7364059;19;20022;-55
2022/10/18 05:18:28;;;;;;;0.00;0.00;;;;;;;9.04;64.39;101913.03;7364583;19;20413;-56
2022/10/18 05:20:54;;;;;;;0.00;0.00;;;;;;;9.13;64.52;101929.56;7361469;19;20500;-57
2022/10/18 05:23:19;;;;;;;0.00;0.00;;;;;;;9.10;64.06;101940.84;7365762;19;20625;-57
2022/10/18 05:25:45;;;;;;;0.00;0.00;;;;;;;9.03;63.80;101933.88;7364870;19;20010;-57
2022/10/18 05:28:10;;;;;;;0.00;0.00;;;;;;;9.01;64.40;101928.66;7365290;19;20025;-56
2022/10/18 05:30:38;;;;;;;0.00;0.00;;;;;;;8.83;64.50;101902.53;7363069;19;20032;-56
2022/10/18 05:33:04;;;;;;;0.00;0.00;;;;;;;9.03;64.61;101939.97;7365405;19;20039;-56
2022/10/18 05:35:29;;;;;;;0.00;0.00;;;;;;;8.95;64.40;101926.03;7364463;19;20015;-56
2022/10/18 05:37:54;;;;;;;0.00;0.00;;;;;;;8.96;64.58;101932.97;7363867;19;20014;-57
2022/10/18 05:40:20;;;;;;;0.00;0.00;;;;;;;8.98;64.15;101935.59;7363189;19;20041;-55
2022/10/18 05:42:45;;;;;;;0.00;0.00;;;;;;;8.95;64.10;101941.66;7364764;19;20092;-57
2022/10/18 05:45:11;;;;;;;0.00;0.00;;;;;;;8.88;64.56;101937.31;7362631;19;20022;-56
2022/10/18 05:47:36;;;;;;;0.00;0.00;;;;;;;8.80;64.40;101921.63;7364851;19;20097;-56
2022/10/18 05:50:02;;;;;;;0.00;0.00;;;;;;;8.91;64.71;101939.91;7363932;19;20576;-57
2022/10/18 05:52:27;;;;;;;0.00;0.00;;;;;;;8.87;64.74;101948.59;7360693;19;20014;-57
2022/10/18 05:54:53;;;;;;;0.00;0.00;;;;;;;8.87;64.89;101956.41;7362851;19;20010;-57
2022/10/18 05:57:18;;;;;;;0.00;0.00;;;;;;;8.65;64.62;101944.13;7365646;19;20010;-57
2022/10/18 05:59:44;;;;;;;0.00;0.00;;;;;;;8.72;64.91;101956.34;7352749;19;20018;-55
2022/10/18 06:02:12;;;;;;;0.10;0.10;;;;;;;8.80;64.85;101973.72;7362359;19;20519;-56
2022/10/18 06:04:37;;;;;;;0.00;0.00;;;;;;;8.69;64.49;101959.78;7360655;19;20014;-57
2022/10/18 06:07:08;;;;;;;0.00;0.00;;;;;;;8.78;64.69;101974.59;7358625;19;20018;-57
2022/10/18 06:09:33;;;;;;;0.00;0.00;;;;;;;8.72;65.02;101969.34;7360724;19;20010;-57
2022/10/18 06:11:58;;;;;;;0.00;0.00;;;;;;;8.60;65.08;101964.91;7361858;19;20082;-57
2022/10/18 06:14:24;;;;;;;0.00;0.00;;;;;;;8.74;64.78;101988.44;7359868;19;20545;-57
2022/10/18 06:16:49;;;;;;;0.00;0.00;;;;;;;8.36;64.87;101924.00;7360962;19;20101;-56
2022/10/18 06:19:15;;;;;;;0.00;0.00;;;;;;;8.68;65.19;101978.00;7361221;19;20006;-56
2022/10/18 06:21:42;;;;;;;0.00;0.00;;;;;;;8.66;65.74;101979.72;7362485;19;20045;-56
2022/10/18 06:24:07;;;;;;;0.00;0.00;;;;;;;8.62;65.52;101981.44;7361573;19;20010;-56
2022/10/18 06:26:33;;;;;;;0.00;0.00;;;;;;;8.66;65.31;101982.31;7361329;19;20670;-57
2022/10/18 06:28:58;;;;;;;0.00;0.00;;;;;;;8.55;65.44;101969.22;7361091;19;20066;-55
2022/10/18 06:31:23;;;;;;;0.00;0.00;;;;;;;8.53;65.69;101964.03;7361916;19;20002;-57
2022/10/18 06:33:49;;;;;;;0.00;0.00;;;;;;;8.54;65.62;101976.19;7360054;19;20760;-55
2022/10/18 06:36:21;;;;;;;0.00;0.00;;;;;;;8.63;65.55;101985.78;7361315;19;20029;-57
2022/10/18 06:38:47;;;;;;;0.00;0.00;;;;;;;8.57;65.35;101991.84;7349737;19;20839;-56
2022/10/18 06:41:12;;;;;;;0.00;0.00;;;;;;;8.60;65.36;101990.97;7361590;19;20011;-57
2022/10/18 06:43:38;;;;;;;0.00;0.00;;;;;;;8.47;65.43;101968.34;7359651;19;20014;-56
2022/10/18 06:46:06;;;;;;;0.00;0.00;;;;;;;8.58;65.86;101990.97;7359808;19;21318;-56
2022/10/18 06:48:32;;;;;;;;;;;;;;;8.60;64.37;101993.56;7360869;19;20017;-57
2022/10/18 06:51:00;;;;;;;0.00;0.00;;;;;;;8.43;65.50;101970.03;7351363;19;21273;-57
2022/10/18 06:53:28;;;;;;;0.00;0.00;;;;;;;8.56;65.55;102002.22;7359411;19;20010;-56
2022/10/18 06:56:01;;;;;;;;;;;;;;;8.56;64.23;102008.28;7349694;19;20818;-56
2022/10/18 06:58:27;;;;;;;0.00;0.00;;;;;;;8.46;65.46;101998.69;7358353;19;19919;-56
2022/10/18 07:00:53;;;;;;;0.00;0.00;;;;;;;8.47;65.91;102005.66;7350053;19;20018;-56
2022/10/18 07:03:19;;;;;;;0.00;0.00;;;;;;;8.41;65.83;101995.16;7358212;19;20431;-55
2022/10/18 07:05:44;;;;;;;0.00;0.00;;;;;;;8.44;66.34;102003.00;7362548;19;20730;-55
2022/10/18 07:08:10;;;;;;;0.00;0.00;;;;;;;8.43;66.07;102014.28;7357570;19;20011;-59
2022/10/18 07:10:35;;;;;;;0.00;0.00;;;;;;;8.39;65.93;101996.03;7366694;19;20010;-59
2022/10/18 07:13:02;;;;;;;0.00;0.00;;;;;;;8.38;66.09;102000.38;7364895;19;20014;-59
2022/10/18 07:15:28;;;;;;;0.00;0.00;;;;;;;8.44;66.40;102010.81;7363295;19;20106;-59
2022/10/18 07:17:53;;;;;;;0.00;0.00;;;;;;;8.45;66.31;102017.75;7357002;19;20034;-57
2022/10/18 07:20:19;;;;;;;0.00;0.00;;;;;;;8.45;66.32;102019.50;7363371;19;20144;-56
2022/10/18 07:22:44;;;;;;;0.00;0.00;;;;;;;8.45;66.65;102011.69;7362040;19;20017;-57
2022/10/18 07:25:09;;;;;;;0.00;0.00;;;;;;;8.40;67.00;102008.19;7360185;19;20006;-57
2022/10/18 07:27:40;;;;;;;0.00;0.00;;;;;;;8.48;66.55;102012.59;7358543;19;20125;-58
2022/10/18 07:30:07;;;;;;;0.00;0.00;;;;;;;8.36;66.96;101996.88;7357876;19;20045;-55
2022/10/18 07:32:33;;;;;;;0.00;0.00;;;;;;;8.50;66.78;102021.28;7360029;19;20014;-57
2022/10/18 07:34:58;;;;;;;0.00;0.00;;;;;;;8.44;67.17;102016.03;7343727;19;20013;-58
2022/10/18 07:37:24;;;;;;;0.00;0.00;;;;;;;8.56;66.81;102028.25;7357448;19;20010;-58
2022/10/18 07:39:49;;;;;;;0.00;0.00;;;;;;;8.55;67.08;102026.50;7358937;19;20041;-55
2022/10/18 07:42:14;;;;;;;0.00;0.00;;;;;;;8.59;67.02;102025.69;7358604;19;20113;-56
2022/10/18 07:44:40;;;;;;;0.00;0.00;;;;;;;8.67;67.15;102039.63;7358043;19;20751;-55
2022/10/18 07:47:05;;;;;;;0.00;0.00;;;;;;;8.63;67.26;102034.41;7358964;19;20965;-57
2022/10/18 07:49:31;;;;;;;0.00;0.00;;;;;;;8.73;67.32;102039.66;7357448;19;20015;-57
2022/10/18 07:51:56;;;;;;;0.00;0.00;;;;;;;8.80;67.15;102045.78;7359631;19;20117;-57
2022/10/18 07:54:21;;;;;;;0.00;0.00;;;;;;;8.83;67.31;102040.59;7355248;19;20010;-56
2022/10/18 07:56:47;;;;;;;0.00;0.00;;;;;;;8.82;67.43;102038.84;7358880;19;20014;-56
2022/10/18 07:59:12;;;;;;;0.00;0.00;;;;;;;8.78;67.36;102026.69;7355816;19;20010;-57
2022/10/18 08:01:38;;;;;;;0.00;0.00;;;;;;;8.97;67.18;102054.56;7356236;19;20014;-55
2022/10/18 08:04:03;;;;;;;0.00;0.00;;;;;;;8.93;67.09;102042.38;7355655;19;20060;-57
2022/10/18 08:06:29;;;;;;;0.00;0.00;;;;;;;9.14;67.18;102069.44;7353619;19;20085;-56
2022/10/18 08:08:54;;;;;;;0.00;0.00;;;;;;;9.27;67.01;102084.25;7357463;19;20122;-57
2022/10/18 08:11:22;;;;;;;0.00;0.00;;;;;;;9.45;66.78;102084.34;7353774;19;20006;-57
2022/10/18 08:13:49;;;;;;;0.00;0.00;;;;;;;9.64;66.77;102084.41;7359716;19;20021;-55
2022/10/18 08:16:17;;;;;;;0.00;0.00;;;;;;;9.85;66.98;102084.47;7358141;19;20912;-56
2022/10/18 08:18:42;;;;;;;0.00;0.00;;;;;;;10.02;66.49;102081.88;7357563;19;20006;-57
2022/10/18 08:21:10;;;;;;;0.00;0.00;;;;;;;10.29;66.26;102100.25;7358860;19;20022;-55
2022/10/18 08:23:36;;;;;;;0.00;0.00;;;;;;;10.50;66.04;102101.13;7356680;19;20021;-58
2022/10/18 08:26:04;;;;;;;0.00;0.00;;;;;;;10.74;65.99;102106.31;7352721;19;22463;-57
2022/10/18 08:28:30;;;;;;;0.00;0.00;;;;;;;10.91;65.73;102103.69;7347621;19;20019;-57
2022/10/18 08:30:55;;;;;;;0.00;0.00;;;;;;;10.96;65.55;102091.50;7354150;19;20020;-56
2022/10/18 08:33:21;;;;;;;0.00;0.00;;;;;;;11.23;65.28;102115.81;7349269;19;20010;-56
2022/10/18 08:36:01;;;;;;;0.00;0.00;;;;;;;11.43;65.11;102108.78;7349567;19;20127;-57
2022/10/18 08:38:32;;;;;;;0.00;0.00;;;;;;;11.62;65.01;102115.69;7347067;19;20027;-55
2022/10/18 08:41:01;;;;;;;0.00;0.00;;;;;;;11.82;64.92;102117.38;7353422;19;20010;-56
2022/10/18 08:43:26;;;;;;;0.00;0.00;;;;;;;12.03;64.81;102119.88;7355028;19;20011;-55
2022/10/18 08:45:53;;;;;;;0.00;0.00;;;;;;;12.30;64.62;102116.19;7355880;19;20006;-57
2022/10/18 08:48:38;;;;;;;0.03;0.03;;;;;;;12.50;64.78;102091.59;7355359;19;20010;-56
2022/10/18 08:51:12;;;;;;;0.00;0.00;;;;;;;12.91;63.75;102120.03;7356680;19;20022;-57
2022/10/18 08:53:58;;;;;;;0.00;0.00;;;;;;;13.24;64.14;102116.25;7355665;19;20014;-57
2022/10/18 08:56:24;;;;;;;0.00;0.00;;;;;;;13.49;63.13;102125.56;7355730;19;20014;-57
2022/10/18 08:58:50;;;;;;;0.00;0.00;;;;;;;13.75;62.95;102127.00;7349631;19;20041;-58
2022/10/18 09:01:50;;;;;;;0.03;0.03;;;;;;;14.12;63.37;102115.97;7352689;19;20014;-57
2022/10/18 09:04:31;;;;;;;0.10;0.10;;;;;;;14.47;63.23;102107.56;7253452;19;2004318;-56
2022/10/18 09:07:11;;;;;;;0.00;0.00;;;;;;;14.75;62.48;102122.00;7351391;19;20026;-58
2022/10/18 09:10:14;;;;;;;0.10;0.10;;;;;;;15.12;62.58;102115.22;7357043;19;20027;-58
2022/10/18 09:13:02;;;;;;;0.00;0.00;;;;;;;15.28;61.32;102112.25;7251347;19;2004266;-57
2022/10/18 09:15:40;;;;;;;0.00;0.00;;;;;;;15.71;62.06;102108.78;7357476;19;20522;-57
2022/10/18 09:18:44;;;;;;;0.10;0.10;;;;;;;16.02;61.88;102101.06;7356423;19;20086;-57
2022/10/18 09:21:19;;;;;;;0.00;0.00;;;;;;;16.18;59.90;102098.94;7255255;19;2004528;-57
2022/10/18 09:23:52;;;;;;;0.00;0.00;;;;;;;16.52;60.13;102111.25;7360708;19;20469;-58
2022/10/18 09:26:23;;;;;;;0.10;0.10;;;;;;;16.76;59.87;102113.31;7360127;19;20014;-57
2022/10/18 09:29:04;;;;;;;0.00;0.00;;;;;;;16.98;59.94;102105.72;7353184;19;20017;-58
2022/10/18 09:31:58;;;;;;;0.00;0.00;;;;;;;17.30;60.10;102104.81;7357462;19;20011;-58
2022/10/18 09:34:37;;;;;;;0.00;0.00;;;;;;;17.52;59.87;102105.06;7253069;19;2004626;-58
2022/10/18 09:37:03;;;;;;;0.00;0.00;;;;;;;17.60;58.27;102102.22;7352755;19;20021;-57
2022/10/18 09:39:34;;;;;;;0.00;0.00;;;;;;;17.79;58.79;102094.59;7356358;19;20030;-57
2022/10/18 09:42:27;;;;;;;0.00;0.00;;;;;;;18.16;59.69;102102.28;7354916;19;20611;-56
2022/10/18 09:45:15;;;;;;;0.00;0.00;;;;;;;18.40;59.48;102100.63;7255522;19;2004506;-58
2022/10/18 09:47:50;;;;;;;0.10;0.10;;;;;;;18.58;58.71;102104.41;7256346;19;2004472;-58
2022/10/18 09:50:24;;;;;;;0.10;0.10;;;;;;;18.70;57.85;102103.16;7361317;19;20043;-58
2022/10/18 09:53:00;;;;;;;0.00;0.00;;;;;;;19.04;57.81;102110.78;7360860;19;20495;-57
2022/10/18 09:55:32;;;;;;;0.10;0.10;;;;;;;19.24;57.55;102104.78;7361279;19;20449;-58
2022/10/18 09:58:01;;;;;;;0.00;0.00;;;;;;;19.44;57.28;102089.00;7353820;19;20066;-58
2022/10/18 10:00:37;;;;;;;0.10;0.10;;;;;;;19.71;57.87;102095.06;7355106;19;20010;-57
2022/10/18 10:03:13;;;;;;;0.00;0.00;;;;;;;19.91;57.42;102096.94;7356308;19;20014;-56
2022/10/18 10:05:39;;;;;;;0.08;0.08;;;;;;;20.01;56.54;102100.09;7355835;19;20015;-57
2022/10/18 10:08:05;;;;;;;0.00;0.00;;;;;;;20.19;56.41;102096.72;7358989;19;20041;-58
2022/10/18 10:10:30;;;;;;;0.05;0.05;;;;;;;20.37;56.04;102095.06;7359039;19;20010;-58
2022/10/18 10:13:16;;;;;;;0.00;0.00;;;;;;;20.68;57.58;102079.66;7358822;19;20090;-58
2022/10/18 10:15:50;;;;;;;0.00;0.00;;;;;;;20.73;56.73;102076.75;7358602;19;20029;-57
2022/10/18 10:18:30;;;;;;;0.10;0.10;;;;;;;20.90;56.73;102084.00;7356934;19;20457;-58
2022/10/18 10:21:01;;;;;;;0.03;0.03;;;;;;;20.84;56.13;102066.56;7359583;19;20007;-58
2022/10/18 10:23:37;;;;;;;0.00;0.00;;;;;;;20.91;56.28;102054.72;7359941;19;20101;-58
2022/10/18 10:26:19;;;;;;;0.10;0.10;;;;;;;21.02;56.09;102077.28;7360301;19;20014;-57
2022/10/18 10:28:47;;;;;;;0.00;0.00;;;;;;;20.96;55.96;102079.28;7359048;19;20002;-57
2022/10/18 10:31:22;;;;;;;0.08;0.08;;;;;;;21.05;56.01;102080.69;7360733;19;20082;-57
2022/10/18 10:33:56;;;;;;;0.05;0.05;;;;;;;20.96;56.14;102073.97;7359889;19;20579;-57
2022/10/18 10:36:21;;;;;;;0.10;0.10;;;;;;;20.93;56.28;102084.75;7359665;19;20093;-57
2022/10/18 10:39:10;;;;;;;0.10;0.10;;;;;;;20.99;56.80;102089.78;7357579;19;20007;-58
2022/10/18 10:41:39;;;;;;;0.00;0.00;;;;;;;20.79;56.12;102097.75;7253518;19;2004243;-58
2022/10/18 10:44:14;;;;;;;0.00;0.00;;;;;;;20.79;56.46;102103.06;7359494;19;20722;-57
2022/10/18 10:46:39;;;;;;;0.10;0.10;;;;;;;20.57;56.81;102102.25;7355492;19;20035;-56
2022/10/18 10:49:05;;;;;;;0.08;0.08;;;;;;;20.41;57.33;102092.25;7358780;19;20010;-57
2022/10/18 10:51:37;;;;;;;0.03;0.03;;;;;;;20.34;57.73;102079.31;7356119;19;20006;-57
2022/10/18 10:54:12;;;;;;;0.00;0.00;;;;;;;20.33;58.21;102081.09;7350785;19;20014;-57
2022/10/18 10:56:56;;;;;;;0.10;0.10;;;;;;;20.58;58.50;102098.66;7352886;19;20542;-55
2022/10/18 10:59:25;;;;;;;0.00;0.00;;;;;;;20.70;58.85;102098.16;7353430;19;20043;-58
2022/10/18 11:02:13;;;;;;;0.10;0.10;;;;;;;21.07;58.28;102085.91;7357604;19;20010;-57
2022/10/18 11:04:40;;;;;;;0.00;0.00;;;;;;;21.22;57.81;102085.22;7349734;19;20760;-57
2022/10/18 11:07:08;;;;;;;0.08;0.08;;;;;;;21.53;57.91;102083.84;7355700;19;20501;-57
2022/10/18 11:09:41;;;;;;;0.10;0.10;;;;;;;21.71;56.72;102088.31;7358446;19;20010;-58
2022/10/18 11:12:09;;;;;;;0.00;0.00;;;;;;;21.97;56.50;102103.88;7356691;19;20014;-58
2022/10/18 11:14:43;;;;;;;0.10;0.10;;;;;;;22.09;56.42;102098.91;7347757;19;20469;-57
2022/10/18 11:17:34;;;;;;;0.00;0.00;;;;;;;22.12;55.89;102078.38;7346400;19;20006;-58
2022/10/18 11:20:05;;;;;;;0.05;0.05;;;;;;;22.24;56.33;102092.84;7246836;19;2004461;-57
2022/10/18 11:22:37;;;;;;;0.10;0.10;;;;;;;22.34;56.33;102093.25;7350695;19;20847;-56
2022/10/18 11:25:04;;;;;;;0.10;0.10;;;;;;;22.36;55.87;102097.59;7350921;19;20011;-56
2022/10/18 11:27:43;;;;;;;0.10;0.10;;;;;;;22.58;55.97;102100.03;7354522;19;20106;-57
2022/10/18 11:30:36;;;;;;;0.00;0.00;;;;;;;22.57;55.70;102102.75;7354443;19;20007;-57
2022/10/18 11:33:26;;;;;;;0.10;0.10;;;;;;;22.46;55.23;102112.16;7251642;19;2004549;-57
2022/10/18 11:36:09;;;;;;;0.00;0.00;;;;;;;22.29;55.64;102098.81;7253320;19;2004458;-58
2022/10/18 11:38:54;;;;;;;0.00;0.00;;;;;;;22.11;55.69;102097.94;7354780;19;20410;-57
2022/10/18 11:41:30;;;;;;;0.10;0.10;;;;;;;21.94;55.82;102098.69;7351705;19;20014;-57